Time;durP1;ratioP1;P1;durP2;ratioP2;P2;SDS_P1;SDS_P2;PMS_P1;PMS_P2;Temp;Humidity;BMP_temperature;BMP_pressure;BME280_temperature;BME280_humidity;BME280_pressure;Samples;Min_cycle;Max_cycle;Signal;HPM_P1;HPM_P2
2021/07/15 00:01:42;;;;;;;;;;;;;;;23.50;73.75;99918.91;1698778;82;20171;-85
2021/07/15 00:04:10;;;;;;;;;;;;;;;23.52;73.76;99900.06;1702901;83;21144;-85
2021/07/15 00:06:36;;;;;;;;;;;;;;;23.55;73.72;99896.06;1707105;82;20107;-85
2021/07/15 00:09:04;;;;;;;;;;;;;;;23.52;73.78;99905.45;1695813;82;20150;-85
2021/07/15 00:11:29;;;;;;;;;;;;;;;23.50;74.07;99910.28;1683738;82;21837;-85
2021/07/15 00:13:57;;;;;;;;;;;;;;;23.46;74.18;99911.83;1691682;83;20335;-85
2021/07/15 00:16:24;;;;;;;;;;;;;;;23.48;73.92;99908.38;1698951;82;20099;-89
2021/07/15 00:18:50;;;;;;;;;;;;;;;23.50;73.85;99917.02;1696166;83;21018;-85
2021/07/15 00:21:18;;;;;;;;;;;;;;;23.51;74.29;99921.88;1695014;83;20142;-87
2021/07/15 00:23:44;;;;;;;;;;;;;;;23.44;74.55;99926.09;1697041;83;21106;-84
2021/07/15 00:26:11;;;;;;;;;;;;;;;23.43;74.63;99935.23;1702471;83;20835;-89
2021/07/15 00:28:38;;;;;;;;;;;;;;;23.47;74.50;99930.99;1691739;84;20158;-84
2021/07/15 00:31:04;;;;;;;;;;;;;;;23.51;74.43;99924.56;1679577;83;20261;-84
2021/07/15 00:33:30;;;;;;;;;;;;;;;23.44;74.58;99915.31;1696562;83;20222;-84
2021/07/15 00:35:57;;;;;;;;;;;;;;;23.47;74.28;99909.43;1704580;83;21037;-84
2021/07/15 00:38:26;;;;;;;;;;;;;;;23.41;74.00;99911.77;1701253;83;20151;-83
2021/07/15 00:40:55;;;;;;;;;;;;;;;23.46;73.95;99888.41;1691559;82;20208;-84
2021/07/15 00:43:21;;;;;;;;;;;;;;;23.46;74.05;99875.45;1698523;83;21208;-83
2021/07/15 00:45:46;;;;;;;;;;;;;;;23.46;74.26;99862.81;1692007;82;20139;-83
2021/07/15 00:48:12;;;;;;;;;;;;;;;23.43;74.57;99851.69;1708106;82;21098;-84
2021/07/15 00:50:38;;;;;;;;;;;;;;;23.37;74.58;99844.59;1696426;83;20177;-85
2021/07/15 00:53:04;;;;;;;;;;;;;;;23.28;74.37;99850.97;1704213;82;20304;-88
2021/07/15 00:55:32;;;;;;;;;;;;;;;23.36;74.39;99855.11;1697181;82;20395;-92
2021/07/15 00:57:58;;;;;;;;;;;;;;;23.35;74.10;99860.20;1699945;82;20168;-86
2021/07/15 01:00:23;;;;;;;;;;;;;;;23.30;74.32;99843.44;1697047;82;21078;-84
2021/07/15 01:02:50;;;;;;;;;;;;;;;23.32;74.17;99827.02;1670880;83;20214;-84
2021/07/15 01:05:20;;;;;;;;;;;;;;;23.28;74.41;99818.09;1701158;82;20184;-87
2021/07/15 01:07:47;;;;;;;;;;;;;;;23.24;74.06;99816.97;1700991;83;20230;-84
2021/07/15 01:10:19;;;;;;;;;;;;;;;23.23;74.50;99812.64;1698771;82;20626;-85
2021/07/15 01:12:54;;;;;;;;;;;;;;;23.12;74.33;99803.59;1698562;83;22011;-84
2021/07/15 01:15:22;;;;;;;;;;;;;;;23.13;74.81;99788.24;1694137;82;20408;-85
2021/07/15 01:18:00;;;;;;;;;;;;;;;23.12;73.91;99793.37;1687979;83;20154;-85
2021/07/15 01:20:46;;;;;;;;;;;;;;;23.06;74.12;99794.33;1701766;83;20209;-84
2021/07/15 01:23:21;;;;;;;;;;;;;;;22.98;74.48;99785.30;1700392;82;20138;-87
2021/07/15 01:25:51;;;;;;;;;;;;;;;23.01;74.29;99787.50;1694430;83;20755;-84
2021/07/15 01:28:52;;;;;;;;;;;;;;;23.05;74.12;99776.53;1700023;83;20306;-87
2021/07/15 01:31:17;;;;;;;;;;;;;;;22.98;74.35;99786.14;1653855;84;20153;-88
2021/07/15 01:33:43;;;;;;;;;;;;;;;22.91;74.50;99797.06;1679664;83;20115;-84
2021/07/15 01:36:10;;;;;;;;;;;;;;;22.90;74.56;99792.75;1690429;82;20765;-84
2021/07/15 01:38:44;;;;;;;;;;;;;;;22.95;74.68;99799.55;1690250;83;21080;-86
2021/07/15 01:41:13;;;;;;;;;;;;;;;22.86;74.57;99805.61;1699186;82;20125;-85
2021/07/15 01:43:46;;;;;;;;;;;;;;;22.89;74.71;99804.58;1692240;83;20426;-86
2021/07/15 01:46:13;;;;;;;;;;;;;;;22.91;74.59;99805.13;1688616;82;20210;-86
2021/07/15 01:48:38;;;;;;;;;;;;;;;22.92;74.43;99805.43;1683471;83;20177;-84
2021/07/15 01:51:06;;;;;;;;;;;;;;;22.89;74.24;99801.88;1690250;83;21065;-84
2021/07/15 01:53:33;;;;;;;;;;;;;;;22.84;74.58;99784.31;1692862;83;20156;-84
2021/07/15 01:56:01;;;;;;;;;;;;;;;22.91;74.65;99785.48;1691499;83;20977;-86
2021/07/15 01:58:28;;;;;;;;;;;;;;;22.92;74.81;99786.58;1688814;83;20234;-85
2021/07/15 02:00:55;;;;;;;;;;;;;;;22.95;74.78;99784.74;1701348;82;20175;-85
2021/07/15 02:03:21;;;;;;;;;;;;;;;22.91;75.08;99807.83;1703267;82;21546;-85
2021/07/15 02:05:49;;;;;;;;;;;;;;;22.85;75.26;99833.04;1700913;83;20182;-85
2021/07/15 02:08:14;;;;;;;;;;;;;;;22.86;75.25;99845.45;1699752;82;20131;-84
2021/07/15 02:10:41;;;;;;;;;;;;;;;22.84;75.37;99839.51;1698631;83;20140;-84
2021/07/15 02:13:10;;;;;;;;;;;;;;;22.82;75.68;99840.27;1694070;82;20243;-89
2021/07/15 02:15:36;;;;;;;;;;;;;;;22.77;75.64;99827.53;1693651;83;21147;-85
2021/07/15 02:18:03;;;;;;;;;;;;;;;22.79;75.84;99832.67;1694736;83;20220;-84
2021/07/15 02:20:28;;;;;;;;;;;;;;;22.73;76.42;99910.37;1694809;82;20169;-89
2021/07/15 02:22:56;;;;;;;;;;;;;;;22.43;77.56;100050.03;1694498;82;20142;-86
2021/07/15 02:25:21;;;;;;;;;;;;;;;22.11;78.55;100042.34;1706448;82;20182;-85
2021/07/15 02:27:47;;;;;;;;;;;;;;;21.98;79.32;100111.13;1689097;83;21281;-82
2021/07/15 02:30:15;;;;;;;;;;;;;;;22.00;78.40;100139.94;1684321;83;20139;-84
2021/07/15 02:32:46;;;;;;;;;;;;;;;22.03;78.42;100135.45;1701519;82;20127;-86
2021/07/15 02:35:15;;;;;;;;;;;;;;;22.18;76.08;100121.02;1701736;82;20559;-83
2021/07/15 02:37:41;;;;;;;;;;;;;;;22.31;75.44;100097.66;1698957;82;20186;-83
2021/07/15 02:40:12;;;;;;;;;;;;;;;22.32;74.95;100104.14;1682201;82;21046;-83
2021/07/15 02:42:38;;;;;;;;;;;;;;;22.35;74.40;100109.05;1698463;82;20126;-84
2021/07/15 02:45:06;;;;;;;;;;;;;;;22.42;74.28;100044.37;1697647;83;20206;-86
2021/07/15 02:47:35;;;;;;;;;;;;;;;22.33;76.67;99993.34;1703246;83;20147;-84
2021/07/15 02:50:01;;;;;;;;;;;;;;;21.96;78.55;99968.05;1710561;82;20170;-84
2021/07/15 02:52:27;;;;;;;;;;;;;;;21.81;80.90;99965.83;1708030;83;21910;-83
2021/07/15 02:54:53;;;;;;;;;;;;;;;21.93;80.21;99942.98;1703346;82;20151;-83
2021/07/15 02:57:36;;;;;;;;;;;;;;;21.78;81.58;99921.45;1697460;83;20173;-84
2021/07/15 03:00:09;;;;;;;;;;;;;;;21.77;82.64;99911.73;1685129;82;20961;-88
2021/07/15 03:02:39;;;;;;;;;;;;;;;21.67;84.32;99916.87;1703153;82;20145;-85
2021/07/15 03:05:07;;;;;;;;;;;;;;;21.76;84.39;99922.19;1702412;82;21224;-84
2021/07/15 03:07:36;;;;;;;;;;;;;;;21.76;84.79;99920.84;1701425;83;20487;-85
2021/07/15 03:10:03;;;;;;;;;;;;;;;21.74;86.02;99915.44;1693456;82;20182;-84
2021/07/15 03:12:34;;;;;;;;;;;;;;;21.72;85.60;99919.70;1714484;82;20586;-85
2021/07/15 03:15:00;;;;;;;;;;;;;;;21.70;86.05;99919.09;1699790;83;20475;-86
2021/07/15 03:17:29;;;;;;;;;;;;;;;21.66;85.66;99912.58;1685208;83;21158;-84
2021/07/15 03:19:57;;;;;;;;;;;;;;;21.69;86.78;99909.42;1696724;83;20210;-84
2021/07/15 03:22:22;;;;;;;;;;;;;;;21.78;86.29;99912.04;1691418;82;20234;-83
2021/07/15 03:24:55;;;;;;;;;;;;;;;21.91;85.89;99912.80;1690946;83;20166;-85
2021/07/15 03:27:21;;;;;;;;;;;;;;;21.93;85.94;99902.12;1699000;83;20093;-83
2021/07/15 03:29:48;;;;;;;;;;;;;;;21.98;86.25;99887.96;1672662;83;21165;-83
2021/07/15 03:32:15;;;;;;;;;;;;;;;22.09;85.75;99900.55;1699678;83;20135;-83
2021/07/15 03:34:41;;;;;;;;;;;;;;;22.15;85.65;99909.01;1697021;82;20161;-83
2021/07/15 03:37:06;;;;;;;;;;;;;;;22.23;85.31;99915.38;1686090;83;20254;-87
2021/07/15 03:39:32;;;;;;;;;;;;;;;22.26;84.45;99921.33;1676297;83;20187;-87
2021/07/15 03:41:58;;;;;;;;;;;;;;;22.27;83.55;99922.97;1692544;83;21935;-88
2021/07/15 03:44:23;;;;;;;;;;;;;;;22.31;83.78;99930.86;1699350;82;20154;-87
2021/07/15 03:46:49;;;;;;;;;;;;;;;22.36;83.31;99943.09;1703294;83;20164;-86
2021/07/15 03:49:16;;;;;;;;;;;;;;;22.40;83.06;99945.57;1701695;82;20529;-87
2021/07/15 03:51:42;;;;;;;;;;;;;;;22.42;82.80;99947.52;1702382;83;20280;-86
2021/07/15 03:54:07;;;;;;;;;;;;;;;22.45;82.81;99956.95;1681182;83;21964;-87
2021/07/15 03:56:33;;;;;;;;;;;;;;;22.41;82.82;99974.12;1695828;83;20154;-87
2021/07/15 03:59:01;;;;;;;;;;;;;;;22.38;83.61;99982.67;1695721;83;20157;-86
2021/07/15 04:01:32;;;;;;;;;;;;;;;22.38;84.82;100004.19;1706242;83;20277;-86
2021/07/15 04:04:00;;;;;;;;;;;;;;;22.39;85.50;100024.67;1675912;83;20452;-87
2021/07/15 04:06:27;;;;;;;;;;;;;;;22.37;86.43;100053.16;1698096;82;21469;-86
2021/07/15 04:08:56;;;;;;;;;;;;;;;22.27;86.50;100065.54;1698105;82;20179;-87
2021/07/15 04:11:22;;;;;;;;;;;;;;;22.13;88.85;100078.41;1703088;82;20135;-86
2021/07/15 04:13:48;;;;;;;;;;;;;;;22.22;88.34;100104.71;1685604;83;20211;-90
2021/07/15 04:16:16;;;;;;;;;;;;;;;22.30;88.36;100094.66;1702458;82;21165;-87
2021/07/15 04:18:44;;;;;;;;;;;;;;;22.25;88.39;100095.37;1687245;83;21199;-88
2021/07/15 04:21:11;;;;;;;;;;;;;;;22.16;88.81;100092.20;1700822;83;20162;-86
2021/07/15 04:23:37;;;;;;;;;;;;;;;21.96;89.66;100071.56;1698856;82;20160;-87
2021/07/15 04:26:04;;;;;;;;;;;;;;;21.66;91.54;100060.39;1695851;82;20125;-87
2021/07/15 04:28:30;;;;;;;;;;;;;;;21.39;91.68;100025.83;1698334;83;20509;-87
2021/07/15 04:30:59;;;;;;;;;;;;;;;21.49;92.77;100002.47;1705635;82;22021;-86
2021/07/15 04:33:27;;;;;;;;;;;;;;;21.55;92.14;99984.59;1697188;81;20170;-88
2021/07/15 04:35:55;;;;;;;;;;;;;;;21.68;92.10;99958.84;1706631;83;20195;-92
2021/07/15 04:38:21;;;;;;;;;;;;;;;21.76;91.88;99934.28;1702798;83;20171;-84
2021/07/15 04:40:47;;;;;;;;;;;;;;;21.82;92.60;99903.77;1702661;83;20176;-84
2021/07/15 04:43:13;;;;;;;;;;;;;;;21.96;92.13;99892.77;1664612;83;21158;-85
2021/07/15 04:45:40;;;;;;;;;;;;;;;22.11;91.26;99884.17;1709133;82;20120;-92
2021/07/15 04:48:06;;;;;;;;;;;;;;;22.11;91.81;99880.98;1699424;82;20179;-90
2021/07/15 04:50:33;;;;;;;;;;;;;;;22.19;91.44;99883.28;1698894;83;20184;-88
2021/07/15 04:53:07;;;;;;;;;;;;;;;22.19;91.58;99885.97;1702879;83;20214;-87
2021/07/15 04:55:33;;;;;;;;;;;;;;;22.29;91.63;99891.26;1695631;81;21132;-85
2021/07/15 04:58:01;;;;;;;;;;;;;;;22.21;91.96;99895.95;1705773;83;20236;-86
2021/07/15 05:00:27;;;;;;;;;;;;;;;22.27;92.14;99886.66;1698213;83;20159;-88
2021/07/15 05:03:12;;;;;;;;;;;;;;;22.38;91.52;99882.58;1699480;82;20156;-89
2021/07/15 05:05:38;;;;;;;;;;;;;;;22.42;91.75;99882.94;1693173;83;20486;-85
2021/07/15 05:08:04;;;;;;;;;;;;;;;22.60;91.28;99868.44;1680907;83;22721;-85
2021/07/15 05:10:29;;;;;;;;;;;;;;;22.68;90.14;99865.88;1704265;82;20675;-89
2021/07/15 05:12:57;;;;;;;;;;;;;;;22.78;90.06;99849.91;1705146;82;20134;-84
2021/07/15 05:15:22;;;;;;;;;;;;;;;22.86;89.99;99852.19;1700255;83;20469;-85
2021/07/15 05:17:48;;;;;;;;;;;;;;;22.99;89.40;99844.84;1687375;83;20179;-85
2021/07/15 05:20:13;;;;;;;;;;;;;;;23.09;88.16;99847.19;1697885;82;21249;-83
2021/07/15 05:22:39;;;;;;;;;;;;;;;23.23;86.93;99840.93;1695404;83;20451;-84
2021/07/15 05:25:07;;;;;;;;;;;;;;;23.24;85.57;99829.09;1692174;83;20138;-84
2021/07/15 05:27:35;;;;;;;;;;;;;;;23.33;85.24;99838.09;1696066;82;20200;-84
2021/07/15 05:30:01;;;;;;;;;;;;;;;23.37;84.79;99840.55;1697393;82;20501;-82
2021/07/15 05:32:26;;;;;;;;;;;;;;;23.48;85.01;99838.30;1689665;83;21239;-83
2021/07/15 05:34:55;;;;;;;;;;;;;;;23.59;83.83;99844.10;1685180;83;20899;-84
2021/07/15 05:37:20;;;;;;;;;;;;;;;23.66;83.34;99838.00;1703829;82;20182;-82
2021/07/15 05:39:46;;;;;;;;;;;;;;;23.77;83.02;99841.64;1696383;82;20178;-81
2021/07/15 05:42:14;;;;;;;;;;;;;;;23.85;82.00;99841.77;1693562;83;20186;-82
2021/07/15 05:44:39;;;;;;;;;;;;;;;23.96;81.42;99843.51;1672770;83;20230;-85
2021/07/15 05:47:07;;;;;;;;;;;;;;;24.05;81.69;99849.80;1701089;82;20147;-81
2021/07/15 05:49:35;;;;;;;;;;;;;;;24.12;80.87;99839.08;1692270;82;20144;-81
2021/07/15 05:52:01;;;;;;;;;;;;;;;24.09;80.54;99822.60;1686692;83;20171;-81
2021/07/15 05:54:27;;;;;;;;;;;;;;;24.21;79.50;99811.13;1690382;83;20199;-82
2021/07/15 05:56:52;;;;;;;;;;;;;;;24.28;78.03;99804.17;1697606;83;21118;-82
2021/07/15 05:59:19;;;;;;;;;;;;;;;24.33;77.22;99795.59;1694890;83;20148;-82
2021/07/15 06:01:44;;;;;;;;;;;;;;;24.46;77.38;99788.95;1686452;82;20149;-85
2021/07/15 06:04:10;;;;;;;;;;;;;;;24.52;77.41;99777.12;1703129;82;20423;-82
2021/07/15 06:06:35;;;;;;;;;;;;;;;24.61;76.64;99769.41;1699911;82;20139;-83
2021/07/15 06:09:01;;;;;;;;;;;;;;;24.71;76.89;99764.60;1706699;83;21064;-83
2021/07/15 06:11:26;;;;;;;;;;;;;;;24.84;76.58;99761.98;1697553;82;20136;-82
2021/07/15 06:13:54;;;;;;;;;;;;;;;24.87;75.89;99754.70;1696228;83;20130;-86
2021/07/15 06:16:20;;;;;;;;;;;;;;;24.95;75.03;99752.86;1701200;82;20115;-82
2021/07/15 06:18:46;;;;;;;;;;;;;;;25.01;74.33;99751.01;1704383;83;20254;-82
2021/07/15 06:21:11;;;;;;;;;;;;;;;25.09;74.00;99745.93;1694969;83;21079;-84
2021/07/15 06:23:39;;;;;;;;;;;;;;;25.14;73.47;99741.61;1701436;83;20607;-81
2021/07/15 06:26:05;;;;;;;;;;;;;;;25.24;73.45;99747.07;1705347;82;20674;-81
2021/07/15 06:28:31;;;;;;;;;;;;;;;25.33;73.25;99753.62;1683296;83;20192;-81
2021/07/15 06:30:59;;;;;;;;;;;;;;;25.42;72.33;99749.89;1693563;82;20222;-83
2021/07/15 06:33:26;;;;;;;;;;;;;;;25.46;70.88;99746.11;1683695;83;21178;-82
2021/07/15 06:35:56;;;;;;;;;;;;;;;25.49;70.33;99742.87;1664090;83;21184;-81
2021/07/15 06:38:24;;;;;;;;;;;;;;;25.62;69.70;99753.18;1693865;82;20211;-84
2021/07/15 06:40:59;;;;;;;;;;;;;;;25.69;69.64;99753.75;1679080;83;20587;-85
2021/07/15 06:43:24;;;;;;;;;;;;;;;25.79;69.69;99765.13;1698999;83;20484;-82
2021/07/15 06:45:52;;;;;;;;;;;;;;;25.88;69.28;99766.78;1697143;82;21296;-81
2021/07/15 06:48:17;;;;;;;;;;;;;;;26.00;69.28;99770.08;1687438;82;20119;-84
2021/07/15 06:50:43;;;;;;;;;;;;;;;26.05;68.52;99764.67;1692174;83;20203;-81
2021/07/15 06:53:10;;;;;;;;;;;;;;;26.11;67.80;99758.19;1696869;83;20122;-82
2021/07/15 06:55:39;;;;;;;;;;;;;;;26.15;67.47;99759.28;1699516;83;20492;-84
2021/07/15 06:58:07;;;;;;;;;;;;;;;26.23;67.26;99751.72;1701353;83;21156;-80
2021/07/15 07:00:36;;;;;;;;;;;;;;;26.29;67.28;99747.94;1676929;83;20979;-85
2021/07/15 07:03:03;;;;;;;;;;;;;;;26.35;66.82;99750.88;1697277;83;20209;-82
2021/07/15 07:05:31;;;;;;;;;;;;;;;26.37;66.55;99754.16;1696114;83;20576;-86
2021/07/15 07:07:59;;;;;;;;;;;;;;;26.36;66.48;99752.52;1703804;82;20269;-82
2021/07/15 07:10:25;;;;;;;;;;;;;;;26.48;67.02;99761.73;1696444;82;21859;-89
2021/07/15 07:12:50;;;;;;;;;;;;;;;26.53;67.78;99761.72;1701953;82;20354;-86
2021/07/15 07:15:17;;;;;;;;;;;;;;;26.66;67.07;99765.80;1691432;83;20218;-86
2021/07/15 07:17:43;;;;;;;;;;;;;;;26.73;66.23;99759.56;1692801;82;21418;-85
2021/07/15 07:20:11;;;;;;;;;;;;;;;26.82;65.40;99759.28;1703649;82;20250;-87
2021/07/15 07:22:37;;;;;;;;;;;;;;;26.89;64.82;99760.34;1704901;81;21072;-85
2021/07/15 07:25:04;;;;;;;;;;;;;;;26.99;65.19;99768.45;1694133;82;20339;-83
2021/07/15 07:27:31;;;;;;;;;;;;;;;27.05;65.19;99765.20;1699290;82;20188;-83
2021/07/15 07:30:00;;;;;;;;;;;;;;;27.19;65.87;99761.34;1701172;83;20294;-84
2021/07/15 07:32:26;;;;;;;;;;;;;;;27.30;65.06;99759.40;1686489;83;20177;-81
2021/07/15 07:34:51;;;;;;;;;;;;;;;27.40;65.36;99752.62;1711547;83;21031;-79
2021/07/15 07:37:17;;;;;;;;;;;;;;;27.45;63.20;99751.79;1689875;83;20194;-78
2021/07/15 07:39:43;;;;;;;;;;;;;;;27.48;62.54;99745.25;1699703;82;20193;-77
2021/07/15 07:42:10;;;;;;;;;;;;;;;27.55;62.12;99734.92;1695647;83;20154;-81
2021/07/15 07:44:38;;;;;;;;;;;;;;;27.65;62.28;99741.38;1694718;82;20155;-79
2021/07/15 07:47:03;;;;;;;;;;;;;;;27.70;61.72;99734.56;1703954;82;21126;-77
2021/07/15 07:49:29;;;;;;;;;;;;;;;27.70;60.36;99735.92;1685042;83;20154;-78
2021/07/15 07:51:54;;;;;;;;;;;;;;;27.78;60.16;99742.13;1697360;83;20174;-86
2021/07/15 07:54:20;;;;;;;;;;;;;;;27.81;60.05;99745.64;1695806;82;20174;-81
2021/07/15 07:56:45;;;;;;;;;;;;;;;27.83;60.16;99750.23;1704705;82;20432;-84
2021/07/15 07:59:11;;;;;;;;;;;;;;;27.89;60.27;99751.82;1700352;82;21101;-82
2021/07/15 08:01:39;;;;;;;;;;;;;;;27.87;60.13;99751.27;1702442;83;20176;-84
2021/07/15 08:04:04;;;;;;;;;;;;;;;27.89;59.83;99753.17;1687308;82;20270;-81
2021/07/15 08:06:36;;;;;;;;;;;;;;;27.99;59.93;99750.16;1692409;83;20162;-82
2021/07/15 08:09:11;;;;;;;;;;;;;;;28.09;60.04;99754.14;1690233;83;20199;-85
2021/07/15 08:11:37;;;;;;;;;;;;;;;28.13;59.38;99763.35;1689946;83;20269;-87
2021/07/15 08:14:03;;;;;;;;;;;;;;;28.28;59.78;99767.31;1686203;82;20722;-87
2021/07/15 08:16:28;;;;;;;;;;;;;;;28.43;59.83;99769.63;1699188;83;20153;-85
2021/07/15 08:18:55;;;;;;;;;;;;;;;28.52;58.27;99777.43;1699507;82;20416;-87
2021/07/15 08:21:21;;;;;;;;;;;;;;;28.61;58.35;99792.05;1694746;83;20148;-85
2021/07/15 08:23:47;;;;;;;;;;;;;;;28.67;58.27;99805.58;1702288;82;22243;-84
2021/07/15 08:26:12;;;;;;;;;;;;;;;28.72;58.79;99814.52;1700037;82;21562;-89
2021/07/15 08:28:39;;;;;;;;;;;;;;;28.78;58.63;99824.23;1695137;82;20223;-84
2021/07/15 08:31:05;;;;;;;;;;;;;;;28.83;58.25;99832.89;1694666;82;20211;-83
2021/07/15 08:33:30;;;;;;;;;;;;;;;28.83;58.25;99843.77;1697831;82;20622;-90
2021/07/15 08:35:56;;;;;;;;;;;;;;;28.87;59.45;99851.63;1686591;82;21072;-84
2021/07/15 08:38:24;;;;;;;;;;;;;;;28.93;59.20;99857.27;1698282;82;20178;-83
2021/07/15 08:40:50;;;;;;;;;;;;;;;28.95;58.76;99867.30;1690572;83;20196;-85
2021/07/15 08:43:15;;;;;;;;;;;;;;;28.80;57.66;99870.16;1685726;82;20158;-84
2021/07/15 08:45:44;;;;;;;;;;;;;;;28.72;57.49;99877.57;1703015;82;20470;-86
2021/07/15 08:48:13;;;;;;;;;;;;;;;28.73;57.56;99890.04;1696142;83;21101;-85
2021/07/15 08:50:39;;;;;;;;;;;;;;;28.57;57.97;99880.64;1689999;83;20177;-85
2021/07/15 08:53:05;;;;;;;;;;;;;;;28.55;58.65;99889.60;1697619;82;20225;-82
2021/07/15 08:58:18;;;;;;;;;;;;;;;28.59;58.28;99892.06;1701493;82;20134;-84
2021/07/15 09:00:44;;;;;;;;;;;;;;;28.51;58.86;99927.95;1701320;82;21064;-82
2021/07/15 09:03:12;;;;;;;;;;;;;;;28.27;62.75;99930.52;1699285;83;20268;-84
2021/07/15 09:05:38;;;;;;;;;;;;;;;27.97;64.82;99949.11;1698137;83;20148;-85
2021/07/15 09:08:04;;;;;;;;;;;;;;;27.75;66.03;99946.19;1696212;83;20203;-84
2021/07/15 09:10:29;;;;;;;;;;;;;;;27.37;66.80;99953.84;1694684;82;20268;-83
2021/07/15 09:13:02;;;;;;;;;;;;;;;27.36;67.51;99946.78;1680122;82;21915;-84
2021/07/15 09:15:28;;;;;;;;;;;;;;;27.19;67.55;99930.24;1700994;83;20400;-87
2021/07/15 09:17:54;;;;;;;;;;;;;;;27.34;67.14;99935.41;1706865;82;20238;-82
2021/07/15 09:20:24;;;;;;;;;;;;;;;27.31;66.93;99934.04;1688564;82;20178;-84
2021/07/15 09:23:02;;;;;;;;;;;;;;;27.32;64.79;99925.38;1699881;83;20183;-84
2021/07/15 09:25:40;;;;;;;;;;;;;;;27.46;64.05;99926.44;1698630;82;20998;-84
2021/07/15 09:28:13;;;;;;;;;;;;;;;27.52;64.18;99917.75;1698213;82;20455;-88
2021/07/15 09:30:40;;;;;;;;;;;;;;;27.62;63.66;99906.86;1706064;82;20172;-84
2021/07/15 09:33:10;;;;;;;;;;;;;;;27.75;63.06;99905.48;1698249;83;20174;-84
2021/07/15 09:35:43;;;;;;;;;;;;;;;27.88;62.08;99909.50;1700788;83;20545;-84
2021/07/15 09:38:13;;;;;;;;;;;;;;;27.87;61.66;99914.09;1698648;83;21852;-90
2021/07/15 09:40:55;;;;;;;;;;;;;;;28.02;61.25;99919.25;1692641;82;20139;-84
2021/07/15 09:43:26;;;;;;;;;;;;;;;28.08;61.59;99922.20;1691881;83;20104;-82
2021/07/15 09:46:00;;;;;;;;;;;;;;;28.17;60.57;99920.53;1661632;83;20177;-82
2021/07/15 09:48:27;;;;;;;;;;;;;;;28.27;59.71;99920.47;1705501;82;20479;-85
2021/07/15 09:50:59;;;;;;;;;;;;;;;28.32;57.57;99932.41;1693841;82;21770;-84
2021/07/15 09:53:29;;;;;;;;;;;;;;;28.25;55.89;99942.22;1694723;83;20184;-86
2021/07/15 09:56:01;;;;;;;;;;;;;;;28.32;56.33;99945.98;1692139;83;20183;-84
2021/07/15 09:58:34;;;;;;;;;;;;;;;28.35;56.72;99965.79;1689841;82;20292;-83
2021/07/15 10:01:06;;;;;;;;;;;;;;;28.27;57.41;99969.34;1695598;82;20193;-83
2021/07/15 10:03:39;;;;;;;;;;;;;;;28.20;57.01;99963.42;1693801;82;21281;-84
2021/07/15 10:06:05;;;;;;;;;;;;;;;28.36;57.58;99966.06;1696190;82;20557;-84
2021/07/15 10:08:32;;;;;;;;;;;;;;;28.39;57.56;99973.10;1700173;83;20269;-83
2021/07/15 10:11:24;;;;;;;;;;;;;;;28.42;56.45;99970.38;1682338;83;20500;-85
2021/07/15 10:14:04;;;;;;;;;;;;;;;28.18;56.42;99987.86;1693369;83;20170;-84
2021/07/15 10:16:32;;;;;;;;;;;;;;;28.09;58.03;99989.80;1694636;82;21117;-84
2021/07/15 10:19:02;;;;;;;;;;;;;;;28.00;57.03;99998.77;1696273;83;37627;-83
2021/07/15 10:21:30;;;;;;;;;;;;;;;27.98;55.03;99998.24;1699602;83;20216;-87
2021/07/15 10:23:56;;;;;;;;;;;;;;;27.98;53.80;99980.59;1700267;82;20432;-83
2021/07/15 10:26:24;;;;;;;;;;;;;;;28.09;53.52;99988.97;1700456;82;20248;-83
2021/07/15 10:28:51;;;;;;;;;;;;;;;28.20;54.43;99990.58;1694990;82;21242;-82
2021/07/15 10:31:20;;;;;;;;;;;;;;;27.93;54.11;99990.89;1691708;83;20144;-84
2021/07/15 10:33:47;;;;;;;;;;;;;;;28.07;54.75;99985.72;1695539;82;20123;-82
2021/07/15 10:36:13;;;;;;;;;;;;;;;27.92;55.26;99989.26;1686892;83;20746;-84
2021/07/15 10:38:41;;;;;;;;;;;;;;;27.79;55.12;99983.07;1692368;82;20119;-84
2021/07/15 10:41:07;;;;;;;;;;;;;;;27.81;54.96;99964.60;1673950;83;21096;-86
2021/07/15 10:43:35;;;;;;;;;;;;;;;27.71;55.21;99963.54;1692072;83;20281;-84
2021/07/15 10:46:05;;;;;;;;;;;;;;;27.70;54.98;99962.45;1694836;82;20209;-87
2021/07/15 10:48:29;;;;;;;;;;;;;;;27.90;54.25;99956.97;1686996;82;20189;-87
2021/07/15 10:50:55;;;;;;;;;;;;;;;27.68;53.48;99984.98;1699369;82;20201;-92
2021/07/15 10:53:22;;;;;;;;;;;;;;;27.47;54.76;99959.27;1708016;82;21279;-87
2021/07/15 10:55:48;;;;;;;;;;;;;;;27.44;56.17;99969.83;1699970;82;20132;-84
2021/07/15 10:58:16;;;;;;;;;;;;;;;27.37;57.35;99980.95;1683941;83;20254;-84
2021/07/15 11:00:53;;;;;;;;;;;;;;;27.33;57.22;99970.37;1677323;82;20139;-88
2021/07/15 11:03:27;;;;;;;;;;;;;;;27.27;56.78;99966.00;1690277;83;20204;-85
2021/07/15 11:05:54;;;;;;;;;;;;;;;27.33;56.89;99969.02;1677167;83;20187;-84
2021/07/15 11:08:40;;;;;;;;;;;;;;;27.37;55.76;99978.25;1688506;82;20114;-90
2021/07/15 11:11:07;;;;;;;;;;;;;;;27.07;56.50;99979.84;1692474;83;20159;-87
2021/07/15 11:13:33;;;;;;;;;;;;;;;27.08;57.18;99956.26;1677389;83;20142;-84
2021/07/15 11:16:00;;;;;;;;;;;;;;;26.96;57.77;99964.67;1685643;83;20220;-87
2021/07/15 11:18:47;;;;;;;;;;;;;;;26.81;57.99;99994.71;1684892;79;21131;-81
2021/07/15 11:21:30;;;;;;;;;;;;;;;26.91;58.38;99976.84;1692543;82;20165;-84
2021/07/15 11:24:10;;;;;;;;;;;;;;;26.71;59.30;99979.80;1691795;82;20138;-86
2021/07/15 11:26:39;;;;;;;;;;;;;;;26.70;60.02;99982.23;1691717;82;20103;-88
2021/07/15 11:29:07;;;;;;;;;;;;;;;26.61;59.18;99979.74;1700798;82;20222;-83
2021/07/15 11:31:46;;;;;;;;;;;;;;;26.72;59.07;99967.87;1703424;83;20487;-86
2021/07/15 11:34:18;;;;;;;;;;;;;;;26.82;59.14;99950.84;1702196;82;20236;-84
2021/07/15 11:36:44;;;;;;;;;;;;;;;26.77;58.45;99935.39;1671444;82;20726;-88
2021/07/15 11:39:09;;;;;;;;;;;;;;;26.90;59.25;99940.01;1692040;83;20142;-85
2021/07/15 11:41:48;;;;;;;;;;;;;;;26.94;58.32;99930.23;1687520;83;20494;-87
2021/07/15 11:44:16;;;;;;;;;;;;;;;26.95;57.71;99928.61;1657627;83;22185;-86
2021/07/15 11:46:41;;;;;;;;;;;;;;;26.98;57.30;99935.39;1686754;83;20262;-84
2021/07/15 11:49:22;;;;;;;;;;;;;;;27.09;58.05;99935.66;1688217;82;20154;-87
2021/07/15 11:52:00;;;;;;;;;;;;;;;27.00;58.35;99926.45;1694877;83;20109;-85
2021/07/15 11:54:43;;;;;;;;;;;;;;;27.13;58.24;99927.27;1695188;83;20244;-86
2021/07/15 11:57:16;;;;;;;;;;;;;;;26.80;58.48;99923.18;1675343;83;21152;-85
2021/07/15 11:59:43;;;;;;;;;;;;;;;26.93;58.82;99919.95;1690109;83;20191;-88
2021/07/15 12:02:41;;;;;;;;;;;;;;;26.93;59.19;99921.86;1691017;83;20162;-91
2021/07/15 12:05:28;;;;;;;;;;;;;;;26.90;59.82;99933.23;1696417;83;20201;-87
2021/07/15 12:08:15;;;;;;;;;;;;;;;26.99;59.31;99938.39;1693665;82;20558;-86
2021/07/15 12:10:43;;;;;;;;;;;;;;;26.91;59.84;99924.84;1693469;83;21213;-89
2021/07/15 12:13:10;;;;;;;;;;;;;;;26.93;59.75;99916.44;1689834;83;20108;-87
2021/07/15 12:15:37;;;;;;;;;;;;;;;26.96;59.98;99915.34;1696069;83;20205;-85
2021/07/15 12:18:11;;;;;;;;;;;;;;;27.10;59.46;99914.26;1693005;82;20206;-83
2021/07/15 12:20:48;;;;;;;;;;;;;;;27.19;59.70;99920.75;1688444;83;20234;-89
2021/07/15 12:23:19;;;;;;;;;;;;;;;27.26;58.53;99923.73;1688256;83;21276;-86
2021/07/15 12:25:46;;;;;;;;;;;;;;;27.26;58.69;99927.80;1694324;82;20247;-92
2021/07/15 12:28:15;;;;;;;;;;;;;;;27.27;58.22;99929.41;1688563;83;20135;-85
2021/07/15 12:30:52;;;;;;;;;;;;;;;27.28;58.46;99925.06;1699366;83;20104;-85
2021/07/15 12:33:20;;;;;;;;;;;;;;;27.39;58.54;99912.34;1691351;83;20177;-82
2021/07/15 12:35:47;;;;;;;;;;;;;;;27.47;58.58;99879.25;1691003;83;21114;-83
2021/07/15 12:38:22;;;;;;;;;;;;;;;27.51;58.17;99883.02;1675670;83;20220;-89
2021/07/15 12:40:48;;;;;;;;;;;;;;;27.63;59.43;99890.86;1689261;83;20166;-84
2021/07/15 12:43:18;;;;;;;;;;;;;;;27.80;59.21;99870.19;1672819;83;20484;-85
2021/07/15 12:45:47;;;;;;;;;;;;;;;27.94;58.39;99873.11;1690318;83;20144;-85
2021/07/15 12:48:11;;;;;;;;;;;;;;;28.08;58.79;99863.28;1686595;83;20124;-84
2021/07/15 12:50:37;;;;;;;;;;;;;;;28.24;58.59;99859.92;1687515;83;20191;-84
2021/07/15 12:53:08;;;;;;;;;;;;;;;28.34;58.13;99848.73;1682881;82;20151;-84
2021/07/15 12:55:36;;;;;;;;;;;;;;;28.60;57.23;99839.33;1707997;82;20203;-92